Time;durP1;ratioP1;P1;durP2;ratioP2;P2;SDS_P1;SDS_P2;PMS_P1;PMS_P2;Temp;Humidity;BMP_temperature;BMP_pressure;BME280_temperature;BME280_humidity;BME280_pressure;Samples;Min_cycle;Max_cycle;Signal;HPM_P1;HPM_P2
2024/05/04 00:01:08;;;;;;;2.75;1.92;;;;;;;11.59;73.73;98225.03;5426762;26;20006;-62
2024/05/04 00:03:54;;;;;;;3.05;2.10;;;;;;;11.62;73.53;98219.63;5460750;26;20066;-62
2024/05/04 00:06:40;;;;;;;3.42;2.17;;;;;;;11.57;73.58;98233.00;5489577;26;20338;-62
2024/05/04 00:09:26;;;;;;;3.03;2.10;;;;;;;11.57;73.52;98230.38;5462125;26;20005;-64
2024/05/04 00:12:11;;;;;;;3.75;2.50;;;;;;;11.53;73.86;98229.66;5462125;26;20075;-65
2024/05/04 00:14:57;;;;;;;5.07;2.70;;;;;;;11.55;73.99;98226.09;5437098;26;20346;-65
2024/05/04 00:17:45;;;;;;;2.83;2.20;;;;;;;11.52;74.07;98227.09;5463023;26;20062;-64
2024/05/04 00:20:30;;;;;;;4.88;2.42;;;;;;;11.57;74.40;98226.88;5436697;26;20411;-65
2024/05/04 00:23:19;;;;;;;5.45;2.50;;;;;;;11.59;73.91;98219.78;5461895;26;20086;-64
2024/05/04 00:26:08;;;;;;;3.92;2.35;;;;;;;11.59;74.09;98225.03;5461899;26;20005;-62
2024/05/04 00:28:54;;;;;;;4.72;2.42;;;;;;;11.48;74.22;98226.38;5412850;26;20005;-60
2024/05/04 00:31:40;;;;;;;3.92;2.42;;;;;;;11.49;74.64;98222.78;5436572;26;20067;-61
2024/05/04 00:34:26;;;;;;;3.97;2.35;;;;;;;11.54;74.69;98230.50;5436900;26;20397;-61
2024/05/04 00:37:12;;;;;;;3.88;2.28;;;;;;;11.45;74.61;98215.97;5436791;26;20012;-61
2024/05/04 00:39:58;;;;;;;3.35;2.35;;;;;;;11.42;74.94;98220.50;5462291;26;20005;-60
2024/05/04 00:42:44;;;;;;;4.95;2.55;;;;;;;11.21;75.15;98185.50;5461877;26;20009;-60
2024/05/04 00:45:29;;;;;;;4.45;2.58;;;;;;;11.49;75.21;98216.69;5461615;26;20001;-60
2024/05/04 00:48:15;;;;;;;4.38;2.47;;;;;;;11.52;75.28;98222.66;5461893;26;20005;-60
2024/05/04 00:51:03;;;;;;;5.82;2.58;;;;;;;11.55;75.19;98212.94;5462087;26;20009;-60
2024/05/04 00:53:49;;;;;;;5.60;2.83;;;;;;;11.59;74.76;98211.88;5462186;26;20333;-60
2024/05/04 00:56:37;;;;;;;4.63;2.42;;;;;;;11.47;75.06;98213.28;5436298;26;20008;-60
2024/05/04 00:59:25;;;;;;;5.03;2.70;;;;;;;11.46;75.39;98216.81;5436516;26;20013;-61
2024/05/04 01:02:11;;;;;;;4.78;2.90;;;;;;;11.23;75.81;98200.25;5436231;26;20009;-64
2024/05/04 01:04:57;;;;;;;4.53;2.92;;;;;;;11.27;75.62;98204.50;5461468;26;20008;-60
2024/05/04 01:07:44;;;;;;;5.28;2.80;;;;;;;11.40;75.32;98217.94;5461469;26;20034;-61
2024/05/04 01:10:30;;;;;;;5.75;3.05;;;;;;;11.47;74.59;98219.38;5488555;26;20021;-60
2024/05/04 01:13:16;;;;;;;4.28;2.40;;;;;;;11.57;74.18;98209.31;5461515;26;20009;-60
2024/05/04 01:16:02;;;;;;;6.13;2.65;;;;;;;11.57;74.20;98209.31;5488497;26;20005;-63
2024/05/04 01:18:49;;;;;;;6.90;2.80;;;;;;;11.41;75.05;98195.13;5461154;26;20070;-61
2024/05/04 01:21:35;;;;;;;5.30;2.67;;;;;;;11.33;75.75;98195.47;5436241;26;20005;-65
2024/05/04 01:24:21;;;;;;;5.07;2.95;;;;;;;11.32;75.79;98207.78;5461515;26;20009;-63
2024/05/04 01:27:08;;;;;;;3.97;2.63;;;;;;;11.27;76.06;98196.59;5461497;26;20529;-61
2024/05/04 01:29:53;;;;;;;4.10;2.50;;;;;;;11.28;75.90;98192.19;5436001;26;20035;-60
2024/05/04 01:32:39;;;;;;;5.55;3.00;;;;;;;11.30;75.59;98204.34;5488185;26;20007;-62
2024/05/04 01:35:25;;;;;;;5.65;2.70;;;;;;;11.23;75.80;98199.41;5462503;26;20004;-61
2024/05/04 01:38:11;;;;;;;5.03;2.88;;;;;;;11.19;75.88;98206.59;5464749;26;20008;-62
2024/05/04 01:40:57;;;;;;;5.50;2.78;;;;;;;11.13;75.81;98210.34;5464266;26;20494;-61
2024/05/04 01:43:42;;;;;;;6.30;2.90;;;;;;;10.87;76.01;98173.78;5464373;26;20044;-64
2024/05/04 01:46:28;;;;;;;6.10;3.08;;;;;;;11.06;76.02;98215.91;5464761;26;20034;-62
2024/05/04 01:49:14;;;;;;;4.38;2.58;;;;;;;10.95;76.30;98203.22;5439295;26;20030;-65
2024/05/04 01:52:00;;;;;;;5.68;2.90;;;;;;;10.78;76.50;98177.66;5439446;26;20005;-61
2024/05/04 01:54:46;;;;;;;4.70;2.70;;;;;;;10.91;76.18;98206.91;5464430;26;20062;-60
2024/05/04 01:57:32;;;;;;;4.53;2.85;;;;;;;10.94;76.11;98204.16;5439176;26;20039;-60
2024/05/04 02:00:18;;;;;;;4.32;2.58;;;;;;;10.91;76.04;98199.03;5438939;26;20062;-60
2024/05/04 02:03:06;;;;;;;5.22;2.60;;;;;;;10.72;75.95;98155.13;5438870;26;20005;-61
2024/05/04 02:05:53;;;;;;;5.13;2.80;;;;;;;11.05;75.49;98180.91;5464716;26;20367;-61
2024/05/04 02:08:39;;;;;;;4.05;2.70;;;;;;;11.07;76.22;98202.69;5438942;26;20357;-64
2024/05/04 02:11:25;;;;;;;4.47;2.58;;;;;;;11.00;75.86;98182.84;5439095;26;20449;-63
2024/05/04 02:14:11;;;;;;;3.83;2.45;;;;;;;11.15;75.95;98199.75;5463964;26;20017;-61
2024/05/04 02:16:57;;;;;;;5.03;2.88;;;;;;;11.19;75.82;98197.84;5464025;26;20453;-62
2024/05/04 02:19:44;;;;;;;3.92;2.60;;;;;;;11.22;76.15;98201.22;5463764;26;20345;-60
2024/05/04 02:22:30;;;;;;;4.07;2.65;;;;;;;10.99;75.40;98154.00;5463860;26;20045;-61
2024/05/04 02:25:16;;;;;;;4.85;2.60;;;;;;;11.30;75.62;98196.44;5438718;26;20044;-64
2024/05/04 02:28:02;;;;;;;4.60;3.10;;;;;;;11.19;75.51;98201.34;5463717;26;20043;-64
2024/05/04 02:30:49;;;;;;;4.20;2.92;;;;;;;11.15;75.99;98195.34;5463804;26;20012;-64
2024/05/04 02:33:35;;;;;;;4.90;3.03;;;;;;;11.17;75.92;98194.44;5491074;26;20006;-62
2024/05/04 02:36:21;;;;;;;4.13;2.90;;;;;;;11.20;75.88;98196.91;5463942;26;20009;-65
2024/05/04 02:39:07;;;;;;;5.30;2.90;;;;;;;11.12;75.73;98179.69;5463534;26;20009;-66
2024/05/04 02:41:52;;;;;;;5.13;3.20;;;;;;;11.10;76.31;98207.84;5463735;26;20449;-64
2024/05/04 02:44:38;;;;;;;5.22;3.05;;;;;;;11.18;76.14;98206.66;5463541;26;20070;-65
2024/05/04 02:47:24;;;;;;;4.43;2.92;;;;;;;11.19;76.23;98190.81;5464136;26;20067;-65
2024/05/04 02:50:11;;;;;;;5.40;2.90;;;;;;;11.14;76.25;98200.66;5463798;26;20447;-60
2024/05/04 02:52:57;;;;;;;3.55;2.67;;;;;;;11.12;76.12;98184.97;5438429;26;20008;-60
2024/05/04 02:55:43;;;;;;;4.50;3.05;;;;;;;11.17;76.29;98194.44;5490595;26;20115;-60
2024/05/04 02:58:29;;;;;;;4.70;2.95;;;;;;;11.20;76.43;98203.06;5438677;26;20005;-60
2024/05/04 03:01:15;;;;;;;6.10;3.33;;;;;;;11.22;75.37;98190.69;5438124;26;20066;-60
2024/05/04 03:04:01;;;;;;;4.32;3.03;;;;;;;11.33;74.74;98184.94;5437913;26;20007;-61
2024/05/04 03:06:47;;;;;;;5.22;3.08;;;;;;;11.24;75.05;98188.84;5438233;26;20397;-61
2024/05/04 03:09:33;;;;;;;7.03;3.10;;;;;;;11.09;76.04;98190.34;5463020;26;20392;-65
2024/05/04 03:12:19;;;;;;;6.20;3.17;;;;;;;10.99;76.67;98196.94;5463737;26;20418;-61
2024/05/04 03:15:05;;;;;;;4.95;3.05;;;;;;;10.93;76.99;98194.56;5463183;26;20005;-62
2024/05/04 03:17:51;;;;;;;4.43;3.13;;;;;;;10.94;77.09;98193.66;5438005;26;20067;-60
2024/05/04 03:20:37;;;;;;;4.82;3.20;;;;;;;10.67;77.58;98166.75;5463185;26;20375;-62
2024/05/04 03:23:23;;;;;;;5.38;2.78;;;;;;;10.93;77.96;98207.69;5463206;26;20067;-61
2024/05/04 03:26:09;;;;;;;4.90;3.60;;;;;;;10.96;77.93;98208.41;5462980;26;20009;-61
2024/05/04 03:28:55;;;;;;;4.95;3.00;;;;;;;10.94;77.87;98204.16;5463234;26;20009;-59
2024/05/04 03:31:40;;;;;;;6.15;3.30;;;;;;;10.96;77.80;98211.06;5462982;26;20066;-60
2024/05/04 03:34:28;;;;;;;5.82;3.05;;;;;;;10.84;78.56;98210.72;5438240;26;20066;-61
2024/05/04 03:37:14;;;;;;;5.18;3.42;;;;;;;10.95;78.34;98201.44;5462826;26;20013;-60
2024/05/04 03:40:00;;;;;;;5.35;2.97;;;;;;;10.71;78.23;98161.31;5463218;26;20066;-60
2024/05/04 03:42:46;;;;;;;5.82;3.60;;;;;;;11.04;77.66;98208.09;5463303;26;20421;-60
2024/05/04 03:45:34;;;;;;;6.20;3.30;;;;;;;11.00;77.41;98192.53;5437885;26;20005;-60
2024/05/04 03:48:19;;;;;;;5.22;3.17;;;;;;;11.06;77.62;98203.66;5437520;26;20448;-61
2024/05/04 03:51:05;;;;;;;4.55;3.13;;;;;;;11.00;77.63;98196.00;5437617;26;20030;-60
2024/05/04 03:53:51;;;;;;;4.75;3.13;;;;;;;11.07;77.58;98210.59;5462784;26;20009;-60
2024/05/04 03:56:37;;;;;;;6.18;3.92;;;;;;;11.15;76.72;98197.97;5462656;26;20283;-60
2024/05/04 03:59:23;;;;;;;5.65;4.05;;;;;;;10.99;76.44;98170.66;5488968;26;20009;-62
2024/05/04 04:02:09;;;;;;;8.25;4.20;;;;;;;11.18;77.10;98209.28;5462542;26;20383;-65
2024/05/04 04:04:57;;;;;;;8.20;3.90;;;;;;;11.10;77.28;98199.09;5451652;26;20013;-63
2024/05/04 04:07:47;;;;;;;5.15;3.50;;;;;;;11.07;77.88;98210.59;5426870;26;20005;-64
2024/05/04 04:10:32;;;;;;;7.07;3.22;;;;;;;11.04;78.36;98215.97;5426825;26;20010;-63
2024/05/04 04:13:18;;;;;;;4.82;3.38;;;;;;;11.02;78.63;98223.06;5451845;26;20006;-61
2024/05/04 04:16:05;;;;;;;5.55;3.35;;;;;;;11.04;78.78;98223.84;5451719;26;20068;-62
2024/05/04 04:18:51;;;;;;;4.90;3.40;;;;;;;10.75;78.75;98186.53;5453718;26;20070;-66
2024/05/04 04:21:36;;;;;;;7.00;3.40;;;;;;;10.72;78.71;98191.06;5426246;26;20068;-62
2024/05/04 04:24:21;;;;;;;4.85;3.30;;;;;;;11.16;77.84;98230.38;5426365;26;20005;-61
2024/05/04 04:27:07;;;;;;;4.70;3.47;;;;;;;11.08;77.17;98199.16;5451324;26;20010;-60
2024/05/04 04:29:53;;;;;;;5.97;3.90;;;;;;;11.23;77.93;98233.59;5451485;26;20068;-62
2024/05/04 04:32:39;;;;;;;5.53;3.45;;;;;;;11.16;77.42;98217.22;5451375;26;20135;-65
2024/05/04 04:35:24;;;;;;;6.53;3.60;;;;;;;11.29;77.15;98225.47;5426234;26;20005;-61
2024/05/04 04:38:10;;;;;;;5.85;3.38;;;;;;;11.29;77.40;98231.56;5452808;26;20067;-60
2024/05/04 04:40:56;;;;;;;6.97;3.65;;;;;;;11.12;77.62;98210.41;5451079;26;20342;-59
2024/05/04 04:43:41;;;;;;;5.13;3.10;;;;;;;11.29;78.20;98244.72;5426106;26;20452;-59
2024/05/04 04:46:27;;;;;;;6.93;3.22;;;;;;;11.27;77.63;98243.06;5426352;26;20064;-60
2024/05/04 04:49:13;;;;;;;5.93;3.58;;;;;;;11.26;77.61;98242.22;5451219;26;20067;-60
2024/05/04 04:51:59;;;;;;;6.47;3.75;;;;;;;11.16;76.90;98230.38;5451083;26;20041;-60
2024/05/04 04:54:45;;;;;;;4.70;3.45;;;;;;;11.31;76.28;98248.13;5426018;26;20006;-59
2024/05/04 04:57:32;;;;;;;7.20;3.75;;;;;;;11.35;76.54;98254.13;5452501;26;20010;-59
2024/05/04 05:00:17;;;;;;;5.07;3.45;;;;;;;11.32;77.38;98243.72;5425646;26;20064;-60
2024/05/04 05:03:03;;;;;;;5.65;3.90;;;;;;;11.32;76.99;98234.06;5452459;26;20005;-60
2024/05/04 05:05:50;;;;;;;5.63;3.58;;;;;;;11.37;76.85;98236.50;5488669;26;20030;-62
2024/05/04 05:08:36;;;;;;;8.60;3.67;;;;;;;11.31;77.51;98234.97;5440712;26;20020;-59
2024/05/04 05:11:27;;;;;;;4.70;3.45;;;;;;;11.32;78.10;98235.84;5453566;26;20013;-59
2024/05/04 05:14:13;;;;;;;5.35;3.65;;;;;;;11.40;77.04;98232.88;5431464;26;20013;-59
2024/05/04 05:17:07;;;;;;;5.68;3.70;;;;;;;11.54;76.65;98235.75;5473247;26;20071;-60
2024/05/04 05:19:53;;;;;;;5.85;3.33;;;;;;;11.57;76.89;98235.63;5464801;26;20008;-61
2024/05/04 05:22:39;;;;;;;8.77;3.85;;;;;;;11.50;76.73;98229.78;5489033;26;20059;-61
2024/05/04 05:25:24;;;;;;;8.63;3.85;;;;;;;11.53;75.18;98234.03;5488627;26;20032;-61
2024/05/04 05:28:16;;;;;;;7.05;3.60;;;;;;;11.48;76.19;98241.28;5462674;26;20513;-61
2024/05/04 05:31:02;;;;;;;8.02;3.60;;;;;;;11.31;76.77;98211.31;5463212;26;20001;-61
2024/05/04 05:33:48;;;;;;;6.20;3.53;;;;;;;11.40;77.14;98241.63;5464667;26;20009;-63
2024/05/04 05:36:34;;;;;;;5.95;3.45;;;;;;;11.37;77.29;98244.38;5439794;26;20005;-60
2024/05/04 05:39:20;;;;;;;4.70;3.33;;;;;;;11.54;76.35;98248.91;5464672;26;20034;-61
2024/05/04 05:42:06;;;;;;;7.55;3.78;;;;;;;11.64;76.65;98249.38;5439164;26;20008;-61
2024/05/04 05:44:52;;;;;;;5.65;3.40;;;;;;;11.55;76.46;98220.81;5491783;26;20004;-60
2024/05/04 05:47:38;;;;;;;6.18;3.40;;;;;;;11.77;76.67;98244.41;5464997;26;20070;-61
2024/05/04 05:50:24;;;;;;;5.68;3.42;;;;;;;11.85;76.35;98244.94;5439454;26;20009;-63
2024/05/04 05:53:10;;;;;;;5.70;3.90;;;;;;;11.97;75.56;98247.03;5439633;26;20337;-60
2024/05/04 05:55:55;;;;;;;5.03;3.42;;;;;;;11.87;75.18;98240.44;5439167;26;20067;-61
2024/05/04 05:58:42;;;;;;;5.82;3.85;;;;;;;11.99;75.75;98244.34;5491672;26;20338;-60
2024/05/04 06:01:27;;;;;;;5.47;3.55;;;;;;;12.04;75.68;98253.72;5464114;26;20009;-62
2024/05/04 06:04:14;;;;;;;6.65;3.88;;;;;;;12.07;75.65;98247.44;5463976;26;20352;-61
2024/05/04 06:07:00;;;;;;;6.82;3.58;;;;;;;11.89;75.65;98243.84;5464556;26;20004;-61
2024/05/04 06:09:47;;;;;;;6.20;3.72;;;;;;;12.01;75.22;98243.31;5414341;26;20031;-60
2024/05/04 06:12:33;;;;;;;6.00;3.88;;;;;;;12.21;75.07;98260.84;5464307;26;20012;-64
2024/05/04 06:15:19;;;;;;;8.70;3.95;;;;;;;12.19;75.12;98243.41;5438803;26;20333;-64
2024/05/04 06:18:05;;;;;;;4.75;3.20;;;;;;;12.37;74.46;98249.56;5491752;26;20005;-60
2024/05/04 06:20:51;;;;;;;6.03;3.67;;;;;;;12.43;73.33;98244.88;5438357;26;20066;-61
2024/05/04 06:23:37;;;;;;;7.05;4.00;;;;;;;12.59;72.42;98265.22;5464049;26;20486;-60
2024/05/04 06:26:23;;;;;;;8.18;4.20;;;;;;;12.57;72.72;98265.31;5414015;26;20472;-59
2024/05/04 06:29:08;;;;;;;5.70;3.85;;;;;;;12.68;72.76;98258.66;5438700;26;20004;-59
2024/05/04 06:31:54;;;;;;;8.05;4.72;;;;;;;12.65;72.12;98272.81;5463718;26;20066;-59
2024/05/04 06:34:41;;;;;;;7.78;4.07;;;;;;;12.55;72.59;98263.69;5463929;26;20016;-59
2024/05/04 06:37:28;;;;;;;6.80;4.40;;;;;;;11.81;73.09;98175.78;5490938;26;20490;-60
2024/05/04 06:40:14;;;;;;;6.63;4.43;;;;;;;12.44;73.05;98275.59;5463732;26;20034;-60
2024/05/04 06:43:00;;;;;;;7.78;4.90;;;;;;;12.06;74.23;98264.19;5463627;26;20009;-60
2024/05/04 06:45:45;;;;;;;9.02;5.00;;;;;;;11.75;75.93;98275.22;5463466;26;20000;-60
2024/05/04 06:48:31;;;;;;;7.15;4.10;;;;;;;12.04;75.09;98274.78;5438329;26;20838;-64
2024/05/04 06:51:18;;;;;;;6.97;4.30;;;;;;;12.22;73.99;98274.88;5463566;26;20487;-65
2024/05/04 06:54:04;;;;;;;9.27;4.85;;;;;;;12.36;74.22;98279.50;5438296;26;20066;-61
2024/05/04 06:56:51;;;;;;;6.88;4.60;;;;;;;12.29;73.34;98192.00;5463511;26;20005;-64
2024/05/04 06:59:37;;;;;;;6.72;4.35;;;;;;;13.03;71.37;98273.63;5463016;26;20032;-61
2024/05/04 07:02:23;;;;;;;8.50;4.63;;;;;;;12.81;69.83;98228.16;5463025;26;20043;-61
2024/05/04 07:05:09;;;;;;;6.53;4.30;;;;;;;13.21;69.34;98255.19;5389145;26;1285335;-63
2024/05/04 07:07:55;;;;;;;5.93;4.03;;;;;;;13.21;70.11;98276.28;5412856;26;20030;-65
2024/05/04 07:10:45;;;;;;;5.50;3.85;;;;;;;13.02;68.94;98257.88;5464531;26;20009;-61
2024/05/04 07:13:34;;;;;;;10.13;3.95;;;;;;;13.12;69.08;98284.63;5462891;26;20030;-63
2024/05/04 07:16:20;;;;;;;6.55;3.92;;;;;;;13.23;68.12;98277.03;5463126;26;20478;-63
2024/05/04 07:19:06;;;;;;;11.73;5.55;;;;;;;13.19;68.45;98272.84;5438103;26;20066;-61
2024/05/04 07:21:52;;;;;;;6.78;4.13;;;;;;;13.37;67.14;98292.22;5490684;26;20005;-63
2024/05/04 07:24:38;;;;;;;7.55;4.20;;;;;;;13.46;66.47;98275.06;5438166;26;20005;-64
2024/05/04 07:27:25;;;;;;;7.50;3.60;;;;;;;13.38;65.51;98283.34;5462870;26;20004;-64
2024/05/04 07:30:11;;;;;;;5.20;3.50;;;;;;;13.03;66.18;98254.28;5437809;26;20062;-59
2024/05/04 07:32:57;;;;;;;10.30;3.58;;;;;;;13.50;64.97;98274.81;5461605;26;20005;-60
2024/05/04 07:35:44;;;;;;;6.13;3.72;;;;;;;13.32;65.43;98265.22;5463467;26;20364;-60
2024/05/04 07:38:30;;;;;;;5.50;3.20;;;;;;;13.46;65.26;98281.19;5462741;26;20009;-60
2024/05/04 07:41:16;;;;;;;8.40;3.58;;;;;;;13.62;65.50;98260.13;5462650;26;20010;-61
2024/05/04 07:44:08;;;;;;;5.45;3.20;;;;;;;13.96;65.90;98274.19;5462673;26;20005;-61
2024/05/04 07:46:58;;;;;;;8.20;3.22;;;;;;;14.29;62.28;98257.44;5462753;26;20337;-61
2024/05/04 07:49:44;;;;;;;7.95;4.25;;;;;;;14.11;63.29;98273.38;5437615;26;20005;-60
2024/05/04 07:52:31;;;;;;;3.85;2.58;;;;;;;13.97;58.84;98247.69;5462433;26;20062;-60
2024/05/04 07:55:17;;;;;;;4.63;2.55;;;;;;;14.24;61.37;98257.72;5462699;26;20013;-61
2024/05/04 07:58:04;;;;;;;4.55;2.60;;;;;;;14.38;61.90;98230.53;5437316;26;20365;-64
2024/05/04 08:00:53;;;;;;;5.93;2.50;;;;;;;14.56;61.27;98196.91;5462251;26;20066;-62
2024/05/04 08:03:39;;;;;;;3.08;2.33;;;;;;;15.05;61.40;98249.66;5462338;26;20005;-64
2024/05/04 08:06:25;;;;;;;4.07;2.78;;;;;;;15.12;61.20;98247.50;5462435;26;20070;-65
2024/05/04 08:09:11;;;;;;;5.78;2.70;;;;;;;15.43;61.19;98232.47;5462680;26;20005;-63
2024/05/04 08:11:58;;;;;;;4.22;2.28;;;;;;;15.50;58.45;98239.09;5412381;26;20005;-61
2024/05/04 08:14:43;;;;;;;6.82;4.30;;;;;;;15.37;57.40;98206.34;5462136;26;20005;-60
2024/05/04 08:17:29;;;;;;;8.32;3.63;;;;;;;15.59;56.33;98187.38;5462170;26;20403;-64
2024/05/04 08:20:15;;;;;;;5.35;2.30;;;;;;;15.46;54.84;98219.03;5437501;26;20004;-60
2024/05/04 08:23:03;;;;;;;3.17;2.10;;;;;;;15.36;57.78;98231.09;5412221;26;20070;-61
2024/05/04 08:25:49;;;;;;;4.45;2.65;;;;;;;15.44;58.37;98223.56;5437045;26;20558;-60
2024/05/04 08:28:35;;;;;;;3.95;2.05;;;;;;;15.28;58.10;98221.81;5461883;26;20008;-61
2024/05/04 08:31:21;;;;;;;3.65;2.30;;;;;;;15.23;56.65;98228.34;5412070;26;20306;-65
2024/05/04 08:34:06;;;;;;;3.40;2.33;;;;;;;14.88;56.65;98176.56;5436734;26;20005;-60
2024/05/04 08:36:52;;;;;;;4.03;2.70;;;;;;;15.36;55.03;98226.69;5488963;26;20070;-66
2024/05/04 08:39:38;;;;;;;3.75;2.70;;;;;;;15.76;56.28;98207.53;5461518;26;20066;-66
2024/05/04 08:42:26;;;;;;;4.75;2.53;;;;;;;15.83;57.40;98216.78;5436560;26;20008;-65
2024/05/04 08:45:15;;;;;;;6.38;3.33;;;;;;;15.82;56.63;98215.13;5461254;26;20457;-63
2024/05/04 08:48:04;;;;;;;4.95;3.17;;;;;;;16.11;58.71;98210.66;5461538;26;20036;-66
2024/05/04 08:50:51;;;;;;;6.47;3.10;;;;;;;16.28;54.06;98206.06;5461996;26;20453;-65
2024/05/04 08:53:38;;;;;;;4.65;3.05;;;;;;;16.08;56.42;98194.94;5462159;26;20005;-64
2024/05/04 08:56:27;;;;;;;5.97;2.90;;;;;;;16.17;55.13;98180.25;5462091;26;20070;-65
2024/05/04 08:59:13;;;;;;;6.78;2.67;;;;;;;16.67;56.02;98202.66;5461905;26;20078;-64
2024/05/04 09:02:01;;;;;;;10.00;3.03;;;;;;;16.68;55.32;98180.47;5436745;26;20515;-63
2024/05/04 09:04:47;;;;;;;7.88;2.60;;;;;;;17.03;54.24;98195.03;5425822;26;20064;-67
2024/05/04 09:07:33;;;;;;;4.40;2.50;;;;;;;16.74;49.69;98193.34;5425821;26;20028;-66
2024/05/04 09:10:19;;;;;;;3.40;2.50;;;;;;;15.21;52.10;98177.31;5400852;26;20039;-64
2024/05/04 09:13:06;;;;;;;3.33;2.17;;;;;;;16.48;51.97;98191.50;5425918;26;20068;-66
2024/05/04 09:15:59;;;;;;;11.85;7.13;;;;;;;17.02;51.63;98186.22;5452111;26;20035;-63
2024/05/04 09:18:45;;;;;;;6.93;2.80;;;;;;;17.22;50.17;98184.84;5452071;26;20006;-61
2024/05/04 09:21:31;;;;;;;8.43;2.40;;;;;;;17.23;49.91;98178.59;5425168;26;20371;-62
2024/05/04 09:24:17;;;;;;;3.35;2.13;;;;;;;17.05;50.32;98150.66;5425628;26;20068;-60
2024/05/04 09:27:04;;;;;;;4.10;2.10;;;;;;;16.00;48.38;98184.81;5425373;26;20005;-61
2024/05/04 09:29:51;;;;;;;3.35;1.83;;;;;;;15.89;49.51;98174.03;5400731;26;20005;-66
2024/05/04 09:32:39;;;;;;;3.80;2.25;;;;;;;16.05;48.38;98185.38;5452055;26;20077;-67
2024/05/04 09:35:32;;;;;;;4.50;2.28;;;;;;;15.76;49.44;98178.41;5425487;26;20005;-65
2024/05/04 09:38:44;;;;;;;2.78;2.03;;;;;;;15.50;50.25;98167.59;5425368;26;20006;-65
2024/05/04 09:41:38;;;;;;;4.35;2.15;;;;;;;15.52;50.74;98175.47;5425467;26;20006;-65
2024/05/04 09:44:30;;;;;;;3.85;1.80;;;;;;;16.03;51.58;98167.88;5450467;26;20453;-63
2024/05/04 09:47:18;;;;;;;3.83;2.08;;;;;;;15.25;49.98;98170.88;5449980;26;20007;-65
2024/05/04 09:50:05;;;;;;;2.20;1.77;;;;;;;15.64;50.19;98159.66;5425143;26;20072;-64
2024/05/04 09:52:51;;;;;;;2.47;1.77;;;;;;;16.31;51.62;98139.59;5450213;26;20053;-63
2024/05/04 09:55:44;;;;;;;3.88;2.15;;;;;;;16.74;49.27;98145.59;5450011;26;20067;-63
2024/05/04 09:58:34;;;;;;;5.18;1.70;;;;;;;17.03;50.57;98145.44;5453683;26;20068;-63
2024/05/04 10:01:27;;;;;;;4.03;1.90;;;;;;;17.26;49.82;98113.81;5453617;26;20071;-61
2024/05/04 10:04:21;;;;;;;3.33;1.83;;;;;;;17.35;50.86;98145.91;5453131;26;20396;-60
2024/05/04 10:07:09;;;;;;;2.38;1.70;;;;;;;17.71;48.99;98140.75;5455022;26;20010;-60
2024/05/04 10:09:56;;;;;;;3.80;1.73;;;;;;;18.82;44.32;98140.75;5453081;26;20518;-62
2024/05/04 10:12:47;;;;;;;2.50;1.58;;;;;;;19.84;43.53;98136.41;5427839;26;20008;-64
2024/05/04 10:15:39;;;;;;;1.55;1.40;;;;;;;20.09;41.89;98132.59;5452905;26;20013;-61
2024/05/04 10:18:39;;;;;;;2.40;1.60;;;;;;;20.44;43.55;98128.03;5452825;26;20063;-63
2024/05/04 10:21:30;;;;;;;3.38;1.60;;;;;;;20.10;39.53;98128.13;5452951;26;20017;-61
2024/05/04 10:24:27;;;;;;;5.05;1.55;;;;;;;19.60;39.35;98136.50;5453309;26;20072;-61
2024/05/04 10:27:19;;;;;;;2.67;1.50;;;;;;;18.98;37.44;98135.94;5453015;26;20064;-60
2024/05/04 10:30:19;;;;;;;1.30;1.20;;;;;;;19.41;38.12;98119.31;5454479;26;20450;-65
2024/05/04 10:33:07;;;;;;;2.75;1.40;;;;;;;20.06;37.43;98130.22;5428321;26;20478;-66
2024/05/04 10:35:55;;;;;;;2.42;1.40;;;;;;;20.24;38.16;98114.53;5428890;26;20005;-67
2024/05/04 10:38:51;;;;;;;4.50;1.60;;;;;;;19.67;38.42;98129.72;5453186;26;20005;-65
2024/05/04 10:41:39;;;;;;;1.58;1.45;;;;;;;20.90;35.70;98111.72;5454498;26;20063;-65
2024/05/04 10:44:25;;;;;;;2.25;1.30;;;;;;;21.38;35.12;98118.34;5428465;26;20009;-66
2024/05/04 10:47:11;;;;;;;2.65;1.50;;;;;;;21.43;37.60;98088.56;5452960;26;20091;-64
2024/05/04 10:49:57;;;;;;;2.30;1.20;;;;;;;22.57;35.59;98103.38;5454424;26;20346;-66
2024/05/04 10:52:44;;;;;;;1.70;1.33;;;;;;;21.64;36.06;98108.09;5428050;26;20045;-64
2024/05/04 10:55:30;;;;;;;1.95;1.30;;;;;;;22.20;33.91;98105.84;5452993;26;20005;-64
2024/05/04 10:58:18;;;;;;;2.00;1.20;;;;;;;19.40;37.01;98095.44;5427952;26;20010;-65
2024/05/04 11:01:10;;;;;;;1.45;1.30;;;;;;;18.91;38.46;98083.28;5452790;26;20006;-64
2024/05/04 11:03:56;;;;;;;2.15;1.30;;;;;;;18.36;39.68;98090.91;5434639;26;20001;-62
2024/05/04 11:06:51;;;;;;;4.90;1.50;;;;;;;18.83;40.95;98111.31;5490398;26;20341;-64
2024/05/04 11:09:43;;;;;;;1.85;1.20;;;;;;;18.02;40.76;98117.34;5462245;26;20122;-61
2024/05/04 11:12:30;;;;;;;2.58;1.40;;;;;;;18.11;42.13;98117.50;5463053;26;20009;-62
2024/05/04 11:15:28;;;;;;;2.72;1.42;;;;;;;17.90;42.18;98109.28;5490303;26;20046;-60
2024/05/04 11:18:15;;;;;;;2.72;1.50;;;;;;;18.61;41.97;98097.91;5463442;26;20001;-61
2024/05/04 11:21:01;;;;;;;2.08;1.30;;;;;;;17.89;41.45;98101.41;5463235;26;20008;-62
2024/05/04 11:23:47;;;;;;;1.92;1.30;;;;;;;17.96;42.60;98089.38;5413077;26;20005;-60
2024/05/04 11:26:33;;;;;;;1.90;1.38;;;;;;;17.67;43.27;98083.50;5437944;26;20013;-65
2024/05/04 11:29:25;;;;;;;1.33;1.23;;;;;;;18.73;43.23;98090.81;5490088;26;20074;-66
2024/05/04 11:32:11;;;;;;;1.95;1.30;;;;;;;19.26;43.44;98083.22;5463142;26;20087;-66
2024/05/04 11:34:57;;;;;;;1.45;1.27;;;;;;;19.20;42.35;98060.59;5437516;26;20004;-63
2024/05/04 11:37:43;;;;;;;2.45;1.40;;;;;;;18.69;40.64;98055.59;5462886;26;20009;-66
2024/05/04 11:40:29;;;;;;;1.65;1.30;;;;;;;18.79;42.34;98067.25;5463101;26;20034;-65
2024/05/04 11:43:16;;;;;;;5.07;1.58;;;;;;;19.45;41.78;98061.31;5462822;26;20066;-63
2024/05/04 11:46:04;;;;;;;1.52;1.35;;;;;;;19.44;42.05;98060.44;5462532;26;20009;-61
2024/05/04 11:48:50;;;;;;;2.53;1.60;;;;;;;19.75;41.67;98049.19;5462702;26;20009;-62
2024/05/04 11:51:36;;;;;;;5.20;1.35;;;;;;;19.95;41.05;98052.88;5437214;26;20461;-60
2024/05/04 11:54:22;;;;;;;3.05;1.40;;;;;;;21.81;36.21;97993.47;5462282;26;20009;-59
2024/05/04 11:57:08;;;;;;;2.30;1.30;;;;;;;24.95;35.72;98032.22;5462517;26;20047;-65
2024/05/04 11:59:55;;;;;;;5.22;1.50;;;;;;;25.10;32.73;98019.03;5462700;26;20067;-64
2024/05/04 12:02:41;;;;;;;2.13;1.33;;;;;;;22.92;34.83;98029.63;5437378;26;20514;-66
2024/05/04 12:05:26;;;;;;;3.28;1.40;;;;;;;22.00;36.32;98032.72;5462235;26;20067;-60
2024/05/04 12:08:13;;;;;;;1.77;1.33;;;;;;;21.86;36.50;98026.81;5489702;26;20066;-66
2024/05/04 12:10:59;;;;;;;3.42;1.42;;;;;;;22.88;35.08;98030.91;5437481;26;20507;-61
2024/05/04 12:13:45;;;;;;;1.58;1.30;;;;;;;25.44;31.22;97984.97;5462628;26;20005;-63
2024/05/04 12:16:31;;;;;;;2.05;1.08;;;;;;;24.87;31.38;98008.81;5462501;26;20038;-60
2024/05/04 12:19:18;;;;;;;1.92;1.33;;;;;;;23.14;34.06;97999.00;5436621;26;20070;-59
2024/05/04 12:22:04;;;;;;;2.53;1.30;;;;;;;22.26;37.66;98030.34;5436890;26;20005;-65
2024/05/04 12:24:50;;;;;;;3.30;1.45;;;;;;;21.02;37.69;98026.19;5461897;26;20013;-65
2024/05/04 12:27:36;;;;;;;1.92;1.50;;;;;;;20.50;38.58;98036.81;5462228;26;20012;-66
2024/05/04 12:30:22;;;;;;;2.63;1.55;;;;;;;19.85;41.13;98007.50;5489367;26;20120;-63
2024/05/04 12:33:08;;;;;;;2.17;1.30;;;;;;;19.41;41.77;97961.28;5436666;26;20070;-63
2024/05/04 12:35:54;;;;;;;1.25;1.13;;;;;;;19.54;41.49;97999.28;5436697;26;20005;-61
2024/05/04 12:38:43;;;;;;;2.45;1.20;;;;;;;19.62;40.19;98015.50;5436824;26;20005;-61
2024/05/04 12:41:34;;;;;;;1.75;1.30;;;;;;;19.56;42.02;98021.31;5461872;26;20008;-62
2024/05/04 12:44:20;;;;;;;1.35;1.10;;;;;;;19.76;42.50;98019.75;5461979;26;20034;-62
2024/05/04 12:47:06;;;;;;;1.42;1.25;;;;;;;18.42;40.15;98016.00;5436708;26;20009;-61
2024/05/04 12:49:53;;;;;;;2.53;1.40;;;;;;;17.87;41.61;98005.03;5436616;26;20005;-65
2024/05/04 12:52:39;;;;;;;1.42;1.25;;;;;;;18.09;43.33;97996.31;5436261;26;20070;-60
2024/05/04 12:55:25;;;;;;;1.50;1.30;;;;;;;17.72;42.33;98012.28;5461274;26;20000;-65
2024/05/04 12:58:11;;;;;;;1.67;1.20;;;;;;;17.92;44.07;98016.16;5461544;26;20005;-63
2024/05/04 13:00:58;;;;;;;3.30;1.48;;;;;;;18.53;41.79;98017.84;5436496;26;20425;-62
2024/05/04 13:03:44;;;;;;;1.33;1.10;;;;;;;18.96;42.54;98001.25;5461340;26;20012;-64
2024/05/04 13:06:32;;;;;;;2.65;1.45;;;;;;;19.31;40.51;98001.13;5436601;26;20395;-64